createdAt,value
2023-03-05T00:00:05.380Z,993.42
2023-03-05T00:01:05.353Z,993.36
2023-03-05T00:02:06.913Z,993.36
2023-03-05T00:03:06.324Z,993.41
2023-03-05T00:04:05.335Z,993.42
2023-03-05T00:05:05.319Z,993.37
2023-03-05T00:06:05.312Z,993.39
2023-03-05T00:07:05.284Z,993.39
2023-03-05T00:08:05.270Z,993.35
2023-03-05T00:09:05.276Z,993.35
2023-03-05T00:10:05.267Z,993.34
2023-03-05T00:11:05.231Z,993.36
2023-03-05T00:12:05.248Z,993.40
2023-03-05T00:13:05.232Z,993.37
2023-03-05T00:14:05.210Z,993.39
2023-03-05T00:15:05.200Z,993.31
2023-03-05T00:16:05.254Z,993.31
2023-03-05T00:17:05.194Z,993.33
2023-03-05T00:18:05.169Z,993.25
2023-03-05T00:19:05.162Z,993.38
2023-03-05T00:20:05.140Z,993.28
2023-03-05T00:21:05.187Z,993.34
2023-03-05T00:22:05.159Z,993.39
2023-03-05T00:23:05.135Z,993.33
2023-03-05T00:24:05.106Z,993.31
2023-03-05T00:25:05.100Z,993.29
2023-03-05T00:26:05.100Z,993.38
2023-03-05T00:27:05.070Z,993.32
2023-03-05T00:28:05.058Z,993.31
2023-03-05T00:29:05.091Z,993.34
2023-03-05T00:30:05.045Z,993.26
2023-03-05T00:31:05.046Z,993.29
2023-03-05T00:32:05.045Z,993.20
2023-03-05T00:33:05.009Z,993.24
2023-03-05T00:34:05.029Z,993.29
2023-03-05T00:35:05.004Z,993.21
2023-03-05T00:36:05.039Z,993.21
2023-03-05T00:37:05.001Z,993.14
2023-03-05T00:38:04.971Z,993.24
2023-03-05T00:39:04.971Z,993.20
2023-03-05T00:40:04.976Z,993.20
2023-03-05T00:41:04.958Z,993.18
2023-03-05T00:42:04.930Z,993.19
2023-03-05T00:43:04.915Z,993.21
2023-03-05T00:44:04.908Z,993.18
2023-03-05T00:45:04.903Z,993.15
2023-03-05T00:46:04.975Z,993.20
2023-03-05T00:47:04.882Z,993.12
2023-03-05T00:48:04.887Z,993.13
2023-03-05T00:49:04.882Z,993.13
2023-03-05T00:50:04.866Z,993.09
2023-03-05T00:51:04.847Z,993.11
2023-03-05T00:52:04.871Z,993.08
2023-03-05T00:53:04.827Z,993.09
2023-03-05T00:54:04.802Z,993.02
2023-03-05T00:55:04.803Z,993.04
2023-03-05T00:56:04.811Z,993.08
2023-03-05T00:57:04.779Z,993.04
2023-03-05T00:58:04.784Z,993.05
2023-03-05T00:59:04.756Z,993.01
2023-03-05T01:00:04.755Z,993.03
2023-03-05T01:01:04.745Z,992.95
2023-03-05T01:02:04.828Z,992.98
2023-03-05T01:03:04.729Z,992.95
2023-03-05T01:04:04.705Z,992.95
2023-03-05T01:05:04.725Z,992.92
2023-03-05T01:06:04.669Z,992.88
2023-03-05T01:07:04.670Z,992.89
2023-03-05T01:08:04.671Z,992.91
2023-03-05T01:09:04.636Z,992.89
2023-03-05T01:10:04.643Z,992.91
2023-03-05T01:11:04.636Z,992.92
2023-03-05T01:12:04.598Z,992.93
2023-03-05T01:13:04.594Z,992.91
2023-03-05T01:14:04.593Z,992.90
2023-03-05T01:15:04.574Z,992.84
2023-03-05T01:16:04.619Z,992.83
2023-03-05T01:17:04.534Z,992.83
2023-03-05T01:18:04.526Z,992.84
2023-03-05T01:19:04.546Z,992.76
2023-03-05T01:20:04.510Z,992.79
2023-03-05T01:21:04.504Z,992.77
2023-03-05T01:22:04.493Z,992.75
2023-03-05T01:23:05.473Z,992.71
2023-03-05T01:24:04.489Z,992.67
2023-03-05T01:25:04.461Z,992.72
2023-03-05T01:26:04.458Z,992.71
2023-03-05T01:27:04.448Z,992.68
2023-03-05T01:28:04.446Z,992.71
2023-03-05T01:29:04.424Z,992.64
2023-03-05T01:30:04.418Z,992.62
2023-03-05T01:31:04.428Z,992.70
2023-03-05T01:32:04.429Z,992.61
2023-03-05T01:33:04.384Z,992.73
2023-03-05T01:34:04.356Z,992.73
2023-03-05T01:35:04.353Z,992.64
2023-03-05T01:36:04.352Z,992.70
2023-03-05T01:37:04.368Z,992.74
2023-03-05T01:38:04.317Z,992.69
2023-03-05T01:39:04.310Z,992.68
2023-03-05T01:40:04.300Z,992.68
2023-03-05T01:41:04.306Z,992.68
2023-03-05T01:42:04.347Z,992.66
2023-03-05T01:43:04.265Z,992.67
2023-03-05T01:44:04.279Z,992.72
2023-03-05T01:45:04.268Z,992.63
2023-03-05T01:46:04.240Z,992.60
2023-03-05T01:47:04.235Z,992.63
2023-03-05T01:48:04.249Z,992.61
2023-03-05T01:49:04.210Z,992.65
2023-03-05T01:50:04.195Z,992.56
2023-03-05T01:51:04.181Z,992.58
2023-03-05T01:52:04.161Z,992.53
2023-03-05T01:53:04.161Z,992.52
2023-03-05T01:54:04.157Z,992.50
2023-03-05T01:55:04.129Z,992.44
2023-03-05T01:56:04.128Z,992.49
2023-03-05T01:57:04.103Z,992.47
2023-03-05T01:58:04.107Z,992.45
2023-03-05T01:59:04.103Z,992.41
2023-03-05T02:00:04.083Z,992.34
2023-03-05T02:01:04.122Z,992.42
2023-03-05T02:02:04.091Z,992.37
2023-03-05T02:03:04.068Z,992.38
2023-03-05T02:04:04.081Z,992.34
2023-03-05T02:05:04.043Z,992.31
2023-03-05T02:06:04.018Z,992.38
2023-03-05T02:07:04.011Z,992.34
2023-03-05T02:08:04.000Z,992.28
2023-03-05T02:09:03.991Z,992.31
2023-03-05T02:10:03.971Z,992.34
2023-03-05T02:11:04.012Z,992.26
2023-03-05T02:12:03.955Z,992.27
2023-03-05T02:13:03.944Z,992.21
2023-03-05T02:14:03.940Z,992.30
2023-03-05T02:15:03.934Z,992.23
2023-03-05T02:16:04.036Z,992.25
2023-03-05T02:17:03.929Z,992.21
2023-03-05T02:18:03.899Z,992.23
2023-03-05T02:19:03.891Z,992.15
2023-03-05T02:20:03.917Z,992.17
2023-03-05T02:21:03.871Z,992.13
2023-03-05T02:22:03.860Z,992.16
2023-03-05T02:23:03.882Z,992.14
2023-03-05T02:24:03.846Z,992.15
2023-03-05T02:25:03.826Z,992.08
2023-03-05T02:26:03.829Z,992.16
2023-03-05T02:27:03.817Z,992.13
2023-03-05T02:28:04.799Z,992.07
2023-03-05T02:29:03.785Z,992.09
2023-03-05T02:30:03.795Z,992.04
2023-03-05T02:31:03.775Z,992.03
2023-03-05T02:32:03.890Z,992.01
2023-03-05T02:33:03.744Z,992.01
2023-03-05T02:34:03.751Z,992.06
2023-03-05T02:35:03.730Z,991.95
2023-03-05T02:36:03.714Z,991.96
2023-03-05T02:37:03.688Z,991.93
2023-03-05T02:38:03.687Z,991.95
2023-03-05T02:39:03.695Z,991.92
2023-03-05T02:40:03.665Z,991.90
2023-03-05T02:41:03.655Z,991.90
2023-03-05T02:42:03.655Z,991.90
2023-03-05T02:43:03.638Z,991.88
2023-03-05T02:44:03.620Z,991.87
2023-03-05T02:45:03.628Z,991.84
2023-03-05T02:46:03.617Z,991.82
2023-03-05T02:47:03.657Z,991.84
2023-03-05T02:48:03.590Z,991.81
2023-03-05T02:49:03.586Z,991.86
2023-03-05T02:50:03.575Z,991.87
2023-03-05T02:51:03.562Z,991.83
2023-03-05T02:52:03.562Z,991.78
2023-03-05T02:53:03.560Z,991.85
2023-03-05T02:54:03.517Z,991.78
2023-03-05T02:55:03.528Z,991.79
2023-03-05T02:56:03.526Z,991.78
2023-03-05T02:57:03.509Z,991.82
2023-03-05T02:58:03.485Z,991.76
2023-03-05T02:59:03.484Z,991.73
2023-03-05T03:00:03.524Z,991.85
2023-03-05T03:01:03.477Z,991.74
2023-03-05T03:02:03.455Z,991.74
2023-03-05T03:03:03.453Z,991.78
2023-03-05T03:04:03.441Z,991.75
2023-03-05T03:05:03.437Z,991.78
2023-03-05T03:06:03.413Z,991.74
2023-03-05T03:07:03.393Z,991.70
2023-03-05T03:08:03.391Z,991.69
2023-03-05T03:09:03.369Z,991.71
2023-03-05T03:10:03.388Z,991.66
2023-03-05T03:11:03.349Z,991.66
2023-03-05T03:12:03.345Z,991.73
2023-03-05T03:13:03.346Z,991.64
2023-03-05T03:14:03.325Z,991.65
2023-03-05T03:15:03.309Z,991.63
2023-03-05T03:16:03.304Z,991.58
2023-03-05T03:17:03.331Z,991.61
2023-03-05T03:18:03.295Z,991.59
2023-03-05T03:19:03.281Z,991.61
2023-03-05T03:20:03.295Z,991.58
2023-03-05T03:21:03.251Z,991.55
2023-03-05T03:22:03.243Z,991.57
2023-03-05T03:23:03.253Z,991.52
2023-03-05T03:24:03.226Z,991.54
2023-03-05T03:25:03.213Z,991.54
2023-03-05T03:26:03.202Z,991.57
2023-03-05T03:27:03.184Z,991.51
2023-03-05T03:28:03.199Z,991.47
2023-03-05T03:29:03.162Z,991.45
2023-03-05T03:30:04.155Z,991.43
2023-03-05T03:31:04.208Z,991.42
2023-03-05T03:32:03.162Z,991.43
2023-03-05T03:33:03.116Z,991.40
2023-03-05T03:34:03.131Z,991.30
2023-03-05T03:35:03.106Z,991.34
2023-03-05T03:36:03.103Z,991.36
2023-03-05T03:37:03.096Z,991.26
2023-03-05T03:38:03.064Z,991.38
2023-03-05T03:39:03.068Z,991.29
2023-03-05T03:40:03.063Z,991.30
2023-03-05T03:41:03.029Z,991.30
2023-03-05T03:42:03.032Z,991.27
2023-03-05T03:43:03.032Z,991.28
2023-03-05T03:44:03.012Z,991.28
2023-03-05T03:45:03.008Z,991.26
2023-03-05T03:46:02.998Z,991.21
2023-03-05T03:47:03.007Z,991.20
2023-03-05T03:48:02.964Z,991.20
2023-03-05T03:49:02.965Z,991.19
2023-03-05T03:50:02.962Z,991.16
2023-03-05T03:51:02.961Z,991.19
2023-03-05T03:52:02.936Z,991.15
2023-03-05T03:53:02.926Z,991.16
2023-03-05T03:54:02.915Z,991.20
2023-03-05T03:55:02.934Z,991.17
2023-03-05T03:56:02.886Z,991.15
2023-03-05T03:57:02.863Z,991.10
2023-03-05T03:58:02.869Z,991.13
2023-03-05T03:59:02.866Z,991.12
2023-03-05T04:00:02.873Z,991.08
2023-03-05T04:01:02.853Z,990.99
2023-03-05T04:02:02.826Z,990.99
2023-03-05T04:03:02.825Z,991.02
2023-03-05T04:04:02.831Z,991.02
2023-03-05T04:05:02.803Z,990.98
2023-03-05T04:06:02.792Z,990.94
2023-03-05T04:07:02.774Z,990.97
2023-03-05T04:08:02.770Z,990.97
2023-03-05T04:09:02.772Z,991.00
2023-03-05T04:10:02.761Z,991.00
2023-03-05T04:11:02.734Z,990.96
2023-03-05T04:12:02.725Z,990.93
2023-03-05T04:13:02.729Z,990.95
2023-03-05T04:14:02.708Z,990.93
2023-03-05T04:15:02.703Z,990.94
2023-03-05T04:16:02.744Z,990.91
2023-03-05T04:17:02.678Z,990.87
2023-03-05T04:18:02.668Z,990.98
2023-03-05T04:19:02.639Z,990.91
2023-03-05T04:20:02.653Z,990.98
2023-03-05T04:21:02.639Z,990.96
2023-03-05T04:22:02.618Z,990.96
2023-03-05T04:23:02.613Z,991.00
2023-03-05T04:24:02.600Z,990.97
2023-03-05T04:25:02.585Z,990.89
2023-03-05T04:26:02.595Z,990.97
2023-03-05T04:27:02.566Z,990.97
2023-03-05T04:28:02.552Z,990.99
2023-03-05T04:29:02.547Z,991.02
2023-03-05T04:30:02.524Z,991.07
2023-03-05T04:31:02.630Z,990.98
2023-03-05T04:32:02.558Z,990.99
2023-03-05T04:33:02.496Z,990.90
2023-03-05T04:34:02.494Z,990.95
2023-03-05T04:35:02.484Z,990.88
2023-03-05T04:36:02.482Z,990.99
2023-03-05T04:37:02.769Z,990.99
2023-03-05T04:38:02.438Z,990.90
2023-03-05T04:39:02.436Z,990.87
2023-03-05T04:40:02.453Z,990.86
2023-03-05T04:41:02.407Z,990.85
2023-03-05T04:42:02.397Z,990.85
2023-03-05T04:43:02.419Z,990.79
2023-03-05T04:44:02.391Z,990.79
2023-03-05T04:45:02.366Z,990.75
2023-03-05T04:46:02.368Z,990.79
2023-03-05T04:47:02.390Z,990.73
2023-03-05T04:48:02.332Z,990.76
2023-03-05T04:49:02.342Z,990.69
2023-03-05T04:50:02.319Z,990.72
2023-03-05T04:51:02.312Z,990.73
2023-03-05T04:52:02.312Z,990.77
2023-03-05T04:53:02.284Z,990.73
2023-03-05T04:54:02.272Z,990.63
2023-03-05T04:55:02.280Z,990.66
2023-03-05T04:56:02.264Z,990.64
2023-03-05T04:57:02.269Z,990.65
2023-03-05T04:58:02.238Z,990.68
2023-03-05T04:59:02.229Z,990.70
2023-03-05T05:00:02.222Z,990.62
2023-03-05T05:01:02.216Z,990.57
2023-03-05T05:02:02.347Z,990.69
2023-03-05T05:03:02.223Z,990.63
2023-03-05T05:04:02.193Z,990.68
2023-03-05T05:05:02.163Z,990.56
2023-03-05T05:06:02.154Z,990.57
2023-03-05T05:07:03.163Z,990.60
2023-03-05T05:08:02.134Z,990.59
2023-03-05T05:09:02.148Z,990.52
2023-03-05T05:10:02.101Z,990.50
2023-03-05T05:11:03.127Z,990.48
2023-03-05T05:12:02.114Z,990.53
2023-03-05T05:13:02.074Z,990.49
2023-03-05T05:14:02.082Z,990.53
2023-03-05T05:15:02.068Z,990.47
2023-03-05T05:16:02.121Z,990.45
2023-03-05T05:17:02.033Z,990.46
2023-03-05T05:18:02.039Z,990.46
2023-03-05T05:19:02.059Z,990.36
2023-03-05T05:20:02.019Z,990.35
2023-03-05T05:21:02.000Z,990.28
2023-03-05T05:22:02.008Z,990.40
2023-03-05T05:23:01.999Z,990.44
2023-03-05T05:24:01.981Z,990.46
2023-03-05T05:25:01.976Z,990.45
2023-03-05T05:26:01.950Z,990.47
2023-03-05T05:27:01.953Z,990.40
2023-03-05T05:28:01.947Z,990.40
2023-03-05T05:29:01.922Z,990.41
2023-03-05T05:30:01.945Z,990.42
2023-03-05T05:31:01.901Z,990.39
2023-03-05T05:32:01.954Z,990.43
2023-03-05T05:33:01.890Z,990.47
2023-03-05T05:34:01.893Z,990.41
2023-03-05T05:35:01.879Z,990.47
2023-03-05T05:36:01.940Z,990.48
2023-03-05T05:37:01.850Z,990.47
2023-03-05T05:38:01.838Z,990.45
2023-03-05T05:39:01.825Z,990.36
2023-03-05T05:40:01.793Z,990.42
2023-03-05T05:41:01.802Z,990.41
2023-03-05T05:42:01.788Z,990.38
2023-03-05T05:43:01.787Z,990.38
2023-03-05T05:44:01.779Z,990.43
2023-03-05T05:45:01.769Z,990.41
2023-03-05T05:46:01.910Z,990.38
2023-03-05T05:47:01.791Z,990.43
2023-03-05T05:48:01.721Z,990.41
2023-03-05T05:49:01.721Z,990.42
2023-03-05T05:50:01.756Z,990.37
2023-03-05T05:51:01.710Z,990.46
2023-03-05T05:52:01.686Z,990.44
2023-03-05T05:53:01.684Z,990.40
2023-03-05T05:54:01.681Z,990.38
2023-03-05T05:55:02.669Z,990.40
2023-03-05T05:56:01.672Z,990.37
2023-03-05T05:57:01.645Z,990.43
2023-03-05T05:58:01.622Z,990.40
2023-03-05T05:59:01.616Z,990.41
2023-03-05T06:00:01.623Z,990.40
2023-03-05T06:01:01.589Z,990.42
2023-03-05T06:02:01.630Z,990.38
2023-03-05T06:03:01.742Z,990.38
2023-03-05T06:04:01.559Z,990.38
2023-03-05T06:05:01.577Z,990.39
2023-03-05T06:06:01.546Z,990.37
2023-03-05T06:07:01.526Z,990.41
2023-03-05T06:08:01.525Z,990.33
2023-03-05T06:09:01.516Z,990.32
2023-03-05T06:10:01.516Z,990.36
2023-03-05T06:11:01.506Z,990.34
2023-03-05T06:12:01.472Z,990.41
2023-03-05T06:13:01.476Z,990.29
2023-03-05T06:14:01.451Z,990.33
2023-03-05T06:15:01.470Z,990.33
2023-03-05T06:16:01.452Z,990.33
2023-03-05T06:17:01.432Z,990.33
2023-03-05T06:18:01.423Z,990.37
2023-03-05T06:19:03.960Z,990.40
2023-03-05T06:20:01.411Z,990.41
2023-03-05T06:21:01.377Z,990.41
2023-03-05T06:22:01.390Z,990.35
2023-03-05T06:23:01.392Z,990.44
2023-03-05T06:24:01.351Z,990.34
2023-03-05T06:25:02.386Z,990.35
2023-03-05T06:26:01.332Z,990.34
2023-03-05T06:27:01.320Z,990.31
2023-03-05T06:28:01.335Z,990.30
2023-03-05T06:29:01.312Z,990.31
2023-03-05T06:30:01.308Z,990.32
2023-03-05T06:31:01.318Z,990.36
2023-03-05T06:32:01.345Z,990.36
2023-03-05T06:33:01.267Z,990.35
2023-03-05T06:34:01.388Z,990.33
2023-03-05T06:35:01.236Z,990.27
2023-03-05T06:36:01.253Z,990.30
2023-03-05T06:37:01.238Z,990.31
2023-03-05T06:38:01.201Z,990.31
2023-03-05T06:39:01.189Z,990.33
2023-03-05T06:40:01.199Z,990.26
2023-03-05T06:41:01.211Z,990.29
2023-03-05T06:42:01.252Z,990.27
2023-03-05T06:43:01.157Z,990.26
2023-03-05T06:44:01.144Z,990.26
2023-03-05T06:45:01.145Z,990.28
2023-03-05T06:46:01.191Z,990.26
2023-03-05T06:47:01.115Z,990.26
2023-03-05T06:48:01.104Z,990.28
2023-03-05T06:49:01.099Z,990.26
2023-03-05T06:50:01.097Z,990.32
2023-03-05T06:51:01.069Z,990.31
2023-03-05T06:52:01.074Z,990.28
2023-03-05T06:53:01.049Z,990.31
2023-03-05T06:54:01.053Z,990.20
2023-03-05T06:55:01.055Z,990.24
2023-03-05T06:56:01.041Z,990.25
2023-03-05T06:57:01.047Z,990.36
2023-03-05T06:58:01.989Z,990.25
2023-03-05T06:59:00.998Z,990.24
2023-03-05T07:00:00.981Z,990.33
2023-03-05T07:01:01.035Z,990.38
2023-03-05T07:02:01.044Z,990.34
2023-03-05T07:03:00.961Z,990.35
2023-03-05T07:04:00.948Z,990.30
2023-03-05T07:05:00.933Z,990.37
2023-03-05T07:06:00.922Z,990.34
2023-03-05T07:07:00.926Z,990.33
2023-03-05T07:08:00.921Z,990.33
2023-03-05T07:09:00.891Z,990.26
2023-03-05T07:10:00.881Z,990.31
2023-03-05T07:11:00.884Z,990.35
2023-03-05T07:12:00.864Z,990.31
2023-03-05T07:13:00.868Z,990.29
2023-03-05T07:14:00.838Z,990.29
2023-03-05T07:15:00.854Z,990.29
2023-03-05T07:16:00.838Z,990.35
2023-03-05T07:17:00.820Z,990.33
2023-03-05T07:18:00.798Z,990.24
2023-03-05T07:19:00.777Z,990.24
2023-03-05T07:20:00.784Z,990.22
2023-03-05T07:21:00.786Z,990.24
2023-03-05T07:22:00.755Z,990.19
2023-03-05T07:23:00.748Z,990.26
2023-03-05T07:24:00.730Z,990.25
2023-03-05T07:25:00.753Z,990.24
2023-03-05T07:26:00.733Z,990.25
2023-03-05T07:27:00.732Z,990.18
2023-03-05T07:28:00.698Z,990.19
2023-03-05T07:29:00.689Z,990.15
2023-03-05T07:30:00.688Z,990.12
2023-03-05T07:31:00.717Z,990.10
2023-03-05T07:32:00.712Z,990.09
2023-03-05T07:33:00.636Z,990.08
2023-03-05T07:34:00.634Z,990.04
2023-03-05T07:35:00.621Z,989.99
2023-03-05T07:36:00.668Z,989.96
2023-03-05T07:37:00.609Z,989.96
2023-03-05T07:38:00.584Z,989.93
2023-03-05T07:39:00.602Z,989.86
2023-03-05T07:40:00.560Z,989.87
2023-03-05T07:41:00.564Z,989.89
2023-03-05T07:42:00.611Z,989.90
2023-03-05T07:43:00.542Z,989.93
2023-03-05T07:44:00.529Z,989.93
2023-03-05T07:45:00.537Z,989.89
2023-03-05T07:46:00.569Z,989.85
2023-03-05T07:47:00.514Z,989.86
2023-03-05T07:48:00.496Z,989.85
2023-03-05T07:49:00.549Z,989.80
2023-03-05T07:50:00.496Z,989.79
2023-03-05T07:51:00.481Z,989.78
2023-03-05T07:52:00.471Z,989.75
2023-03-05T07:53:00.453Z,989.78
2023-03-05T07:54:00.436Z,989.82
2023-03-05T07:55:00.439Z,989.75
2023-03-05T07:56:00.420Z,989.78
2023-03-05T07:57:00.402Z,989.72
2023-03-05T07:58:00.387Z,989.72
2023-03-05T07:59:00.385Z,989.72
2023-03-05T08:00:00.369Z,989.68
2023-03-05T08:01:00.376Z,989.68
2023-03-05T08:02:00.350Z,989.68
2023-03-05T08:03:00.351Z,989.60
2023-03-05T08:04:00.374Z,989.68
2023-03-05T08:05:00.345Z,989.67
2023-03-05T08:06:00.338Z,989.63
2023-03-05T08:07:00.299Z,989.68
2023-03-05T08:08:00.307Z,989.61
2023-03-05T08:09:00.291Z,989.62
2023-03-05T08:10:00.284Z,989.57
2023-03-05T08:11:01.027Z,989.66
2023-03-05T08:12:00.247Z,989.65
2023-03-05T08:13:00.233Z,989.63
2023-03-05T08:14:00.228Z,989.62
2023-03-05T08:15:00.225Z,989.63
2023-03-05T08:16:00.255Z,989.56
2023-03-05T08:17:00.192Z,989.56
2023-03-05T08:18:00.209Z,989.52
2023-03-05T08:19:00.175Z,989.52
2023-03-05T08:20:00.206Z,989.50
2023-03-05T08:21:00.191Z,989.49
2023-03-05T08:22:00.167Z,989.52
2023-03-05T08:23:00.136Z,989.52
2023-03-05T08:24:00.129Z,989.50
2023-03-05T08:25:00.151Z,989.43
2023-03-05T08:26:00.142Z,989.45
2023-03-05T08:27:00.121Z,989.42
2023-03-05T08:28:00.096Z,989.43
2023-03-05T08:29:00.104Z,989.44
2023-03-05T08:30:00.115Z,989.42
2023-03-05T08:31:00.150Z,989.33
2023-03-05T08:32:00.169Z,989.35
2023-03-05T08:33:00.048Z,989.36
2023-03-05T08:34:00.030Z,989.32
2023-03-05T08:35:00.016Z,989.39
2023-03-05T08:36:00.076Z,989.35
2023-03-05T08:37:00.002Z,989.35
2023-03-05T08:37:59.972Z,989.35
2023-03-05T08:38:59.987Z,989.33
2023-03-05T08:39:59.956Z,989.27
2023-03-05T08:40:59.965Z,989.40
2023-03-05T08:41:59.970Z,989.37
2023-03-05T08:42:59.937Z,989.35
2023-03-05T08:43:59.929Z,989.38
2023-03-05T08:44:59.926Z,989.41
2023-03-05T08:45:59.903Z,989.33
2023-03-05T08:46:59.963Z,989.38
2023-03-05T08:47:59.874Z,989.34
2023-03-05T08:48:59.876Z,989.33
2023-03-05T08:49:59.864Z,989.37
2023-03-05T08:50:59.851Z,989.45
2023-03-05T08:51:59.840Z,989.48
2023-03-05T08:52:59.847Z,989.52
2023-03-05T08:53:59.823Z,989.49
2023-03-05T08:54:59.799Z,989.54
2023-03-05T08:55:59.828Z,989.46
2023-03-05T08:56:59.771Z,989.50
2023-03-05T08:57:59.780Z,989.45
2023-03-05T08:58:59.799Z,989.41
2023-03-05T08:59:59.791Z,989.41
2023-03-05T09:00:59.742Z,989.35
2023-03-05T09:01:59.769Z,989.44
2023-03-05T09:02:59.783Z,989.43
2023-03-05T09:03:59.709Z,989.38
2023-03-05T09:04:59.753Z,989.35
2023-03-05T09:05:59.705Z,989.36
2023-03-05T09:06:59.713Z,989.32
2023-03-05T09:07:59.682Z,989.28
2023-03-05T09:08:59.686Z,989.25
2023-03-05T09:09:59.652Z,989.23
2023-03-05T09:10:59.624Z,989.16
2023-03-05T09:11:59.661Z,989.21
2023-03-05T09:12:59.640Z,989.27
2023-03-05T09:13:59.623Z,989.20
2023-03-05T09:14:59.632Z,989.19
2023-03-05T09:15:59.625Z,989.16
2023-03-05T09:16:59.622Z,989.12
2023-03-05T09:17:59.602Z,989.10
2023-03-05T09:18:59.545Z,989.08
2023-03-05T09:19:59.569Z,989.05
2023-03-05T09:20:59.551Z,989.10
2023-03-05T09:21:59.540Z,989.14
2023-03-05T09:22:59.563Z,989.04
2023-03-05T09:23:59.543Z,989.06
2023-03-05T09:24:59.478Z,989.06
2023-03-05T09:25:59.481Z,989.07
2023-03-05T09:26:59.519Z,989.04
2023-03-05T09:27:59.438Z,989.07
2023-03-05T09:29:00.475Z,989.08
2023-03-05T09:29:59.452Z,989.06
2023-03-05T09:30:59.434Z,989.04
2023-03-05T09:31:59.547Z,989.02
2023-03-05T09:32:59.448Z,989.04
2023-03-05T09:33:59.406Z,988.99
2023-03-05T09:34:59.397Z,989.04
2023-03-05T09:35:59.472Z,989.00
2023-03-05T09:36:59.369Z,989.03
2023-03-05T09:37:59.376Z,989.06
2023-03-05T09:38:59.412Z,989.11
2023-03-05T09:39:59.355Z,989.11
2023-03-05T09:40:59.342Z,989.06
2023-03-05T09:41:59.331Z,989.07
2023-03-05T09:42:59.381Z,989.08
2023-03-05T09:43:59.310Z,989.08
2023-03-05T09:44:59.301Z,989.09
2023-03-05T09:45:59.312Z,989.01
2023-03-05T09:46:59.296Z,988.99
2023-03-05T09:47:59.294Z,988.97
2023-03-05T09:48:59.231Z,988.98
2023-03-05T09:49:59.233Z,988.96
2023-03-05T09:50:59.269Z,988.99
2023-03-05T09:51:59.190Z,988.91
2023-03-05T09:53:00.231Z,988.92
2023-03-05T09:54:01.587Z,988.81
2023-03-05T09:54:59.176Z,988.83
2023-03-05T09:55:59.181Z,988.79
2023-03-05T09:56:59.211Z,988.81
2023-03-05T09:57:59.185Z,988.73
2023-03-05T09:58:59.147Z,988.77
2023-03-05T09:59:59.155Z,988.82
2023-03-05T10:00:59.113Z,988.74
2023-03-05T10:01:59.135Z,988.73
2023-03-05T10:02:59.167Z,988.72
2023-03-05T10:03:59.127Z,988.67
2023-03-05T10:04:59.069Z,988.69
2023-03-05T10:05:59.080Z,988.61
2023-03-05T10:06:59.109Z,988.65
2023-03-05T10:07:59.037Z,988.63
2023-03-05T10:08:59.098Z,988.62
2023-03-05T10:09:59.046Z,988.70
2023-03-05T10:10:59.025Z,988.66
2023-03-05T10:11:59.020Z,988.60
2023-03-05T10:12:59.034Z,988.64
2023-03-05T10:13:58.995Z,988.74
2023-03-05T10:14:58.994Z,988.75
2023-03-05T10:15:59.035Z,988.74
2023-03-05T10:16:58.943Z,988.77
2023-03-05T10:17:58.943Z,988.76
2023-03-05T10:18:58.964Z,988.88
2023-03-05T10:19:58.945Z,988.84
2023-03-05T10:20:58.959Z,988.81
2023-03-05T10:21:58.925Z,988.80
2023-03-05T10:22:58.927Z,988.82
2023-03-05T10:23:58.892Z,988.74
2023-03-05T10:24:58.901Z,988.73
2023-03-05T10:25:58.897Z,988.75
2023-03-05T10:26:58.913Z,988.68
2023-03-05T10:27:59.856Z,988.61
2023-03-05T10:28:58.877Z,988.61
2023-03-05T10:29:58.853Z,988.60
2023-03-05T10:30:58.823Z,988.54
2023-03-05T10:31:58.905Z,988.49
2023-03-05T10:32:58.784Z,988.53
2023-03-05T10:33:59.812Z,988.54
2023-03-05T10:34:58.788Z,988.57
2023-03-05T10:35:58.855Z,988.57
2023-03-05T10:36:58.746Z,988.58
2023-03-05T10:37:58.768Z,988.50
2023-03-05T10:38:58.762Z,988.57
2023-03-05T10:39:58.706Z,988.50
2023-03-05T10:40:58.732Z,988.49
2023-03-05T10:41:58.713Z,988.50
2023-03-05T10:42:58.700Z,988.49
2023-03-05T10:43:58.673Z,988.47
2023-03-05T10:44:58.701Z,988.51
2023-03-05T10:45:58.723Z,988.54
2023-03-05T10:46:58.626Z,988.51
2023-03-05T10:47:58.658Z,988.50
2023-03-05T10:48:58.682Z,988.55
2023-03-05T10:49:58.636Z,988.48
2023-03-05T10:50:58.602Z,988.48
2023-03-05T10:51:58.594Z,988.45
2023-03-05T10:52:58.631Z,988.39
2023-03-05T10:53:58.583Z,988.40
2023-03-05T10:54:58.555Z,988.38
2023-03-05T10:55:58.582Z,988.41
2023-03-05T10:56:58.539Z,988.36
2023-03-05T10:57:58.548Z,988.37
2023-03-05T10:58:58.530Z,988.36
2023-03-05T10:59:58.529Z,988.37
2023-03-05T11:00:58.515Z,988.35
2023-03-05T11:01:58.483Z,988.39
2023-03-05T11:02:58.558Z,988.45
2023-03-05T11:03:58.470Z,988.40
2023-03-05T11:04:58.480Z,988.45
2023-03-05T11:05:58.480Z,988.41
2023-03-05T11:06:58.439Z,988.33
2023-03-05T11:07:58.430Z,988.42
2023-03-05T11:08:58.443Z,988.32
2023-03-05T11:09:58.407Z,988.30
2023-03-05T11:10:58.400Z,988.28
2023-03-05T11:11:58.404Z,988.29
2023-03-05T11:12:58.368Z,988.30
2023-03-05T11:13:58.365Z,988.26
2023-03-05T11:14:58.397Z,988.34
2023-03-05T11:15:58.400Z,988.34
2023-03-05T11:16:58.322Z,988.36
2023-03-05T11:17:58.382Z,988.39
2023-03-05T11:18:58.369Z,988.41
2023-03-05T11:19:58.306Z,988.40
2023-03-05T11:20:58.289Z,988.38
2023-03-05T11:21:59.800Z,988.29
2023-03-05T11:22:59.276Z,988.40
2023-03-05T11:23:58.283Z,988.46
2023-03-05T11:24:58.261Z,988.44
2023-03-05T11:25:58.234Z,988.52
2023-03-05T11:26:58.234Z,988.49
2023-03-05T11:27:58.200Z,988.40
2023-03-05T11:28:58.243Z,988.38
2023-03-05T11:29:58.197Z,988.38
2023-03-05T11:30:58.230Z,988.43
2023-03-05T11:31:58.211Z,988.45
2023-03-05T11:32:58.191Z,988.35
2023-03-05T11:33:58.152Z,988.43
2023-03-05T11:34:58.133Z,988.42
2023-03-05T11:35:58.194Z,988.47
2023-03-05T11:36:58.126Z,988.44
2023-03-05T11:37:58.136Z,988.50
2023-03-05T11:38:58.123Z,988.51
2023-03-05T11:39:58.097Z,988.53
2023-03-05T11:40:58.075Z,988.52
2023-03-05T11:41:58.074Z,988.50
2023-03-05T11:42:58.078Z,988.42
2023-03-05T11:43:58.047Z,988.49
2023-03-05T11:44:58.068Z,988.34
2023-03-05T11:45:59.159Z,988.34
2023-03-05T11:46:58.007Z,988.26
2023-03-05T11:47:58.006Z,988.22
2023-03-05T11:48:58.014Z,988.26
2023-03-05T11:49:57.997Z,988.23
2023-03-05T11:50:57.977Z,988.20
2023-03-05T11:51:57.960Z,988.21
2023-03-05T11:52:58.005Z,988.11
2023-03-05T11:53:57.954Z,988.09
2023-03-05T11:54:57.944Z,988.05
2023-03-05T11:55:57.968Z,988.05
2023-03-05T11:56:57.932Z,988.05
2023-03-05T11:57:57.919Z,987.98
2023-03-05T11:58:57.888Z,988.03
2023-03-05T11:59:57.917Z,988.04
2023-03-05T12:00:57.889Z,987.97
2023-03-05T12:01:57.864Z,987.95
2023-03-05T12:02:57.941Z,987.99
2023-03-05T12:03:57.923Z,987.93
2023-03-05T12:04:57.837Z,987.89
2023-03-05T12:05:57.827Z,987.93
2023-03-05T12:06:57.845Z,987.90
2023-03-05T12:07:57.827Z,987.83
2023-03-05T12:08:57.829Z,987.88
2023-03-05T12:09:57.785Z,987.81
2023-03-05T12:10:57.796Z,987.76
2023-03-05T12:11:57.760Z,987.93
2023-03-05T12:12:57.745Z,987.85
2023-03-05T12:13:57.762Z,987.80
2023-03-05T12:14:57.787Z,987.77
2023-03-05T12:15:57.862Z,987.68
2023-03-05T12:16:57.741Z,987.74
2023-03-05T12:17:57.735Z,987.73
2023-03-05T12:18:57.732Z,987.71
2023-03-05T12:19:57.695Z,987.60
2023-03-05T12:20:57.658Z,987.56
2023-03-05T12:21:57.664Z,987.67
2023-03-05T12:22:57.695Z,987.59
2023-03-05T12:23:57.608Z,987.53
2023-03-05T12:24:57.653Z,987.53
2023-03-05T12:25:57.618Z,987.52
2023-03-05T12:26:58.618Z,987.50
2023-03-05T12:27:57.608Z,987.41